sensor_id;sensor_type;location;lat;lon;timestamp;temperature;humidity
14962;DHT22;56489;53.166;10.864;2022-07-24T00:01:21;10.90;99.90
14962;DHT22;56489;53.166;10.864;2022-07-24T00:03:48;10.90;99.90
14962;DHT22;56489;53.166;10.864;2022-07-24T00:06:14;10.80;99.90
14962;DHT22;56489;53.166;10.864;2022-07-24T00:08:41;10.70;99.90
14962;DHT22;56489;53.166;10.864;2022-07-24T00:11:08;10.70;99.90
14962;DHT22;56489;53.166;10.864;2022-07-24T00:13:35;10.70;99.90
14962;DHT22;56489;53.166;10.864;2022-07-24T00:16:01;10.60;99.90
14962;DHT22;56489;53.166;10.864;2022-07-24T00:18:28;10.60;99.90
14962;DHT22;56489;53.166;10.864;2022-07-24T00:20:55;10.60;99.90
14962;DHT22;56489;53.166;10.864;2022-07-24T00:23:22;10.60;99.90
14962;DHT22;56489;53.166;10.864;2022-07-24T00:25:50;10.50;99.90
14962;DHT22;56489;53.166;10.864;2022-07-24T00:28:16;10.50;99.90
14962;DHT22;56489;53.166;10.864;2022-07-24T00:30:43;10.40;99.90
14962;DHT22;56489;53.166;10.864;2022-07-24T00:33:10;10.40;99.90
14962;DHT22;56489;53.166;10.864;2022-07-24T00:35:37;10.30;99.90
14962;DHT22;56489;53.166;10.864;2022-07-24T00:38:03;10.30;99.90
14962;DHT22;56489;53.166;10.864;2022-07-24T00:40:30;10.20;99.90
14962;DHT22;56489;53.166;10.864;2022-07-24T00:42:57;10.20;99.90
14962;DHT22;56489;53.166;10.864;2022-07-24T00:45:24;10.30;99.90
14962;DHT22;56489;53.166;10.864;2022-07-24T00:47:52;10.20;99.90
14962;DHT22;56489;53.166;10.864;2022-07-24T00:50:24;10.20;99.90
14962;DHT22;56489;53.166;10.864;2022-07-24T00:52:51;10.20;99.90
14962;DHT22;56489;53.166;10.864;2022-07-24T00:55:20;10.20;99.90
14962;DHT22;56489;53.166;10.864;2022-07-24T00:57:47;10.20;99.90
14962;DHT22;56489;53.166;10.864;2022-07-24T01:00:17;10.20;99.90
14962;DHT22;56489;53.166;10.864;2022-07-24T01:02:44;10.20;99.90
14962;DHT22;56489;53.166;10.864;2022-07-24T01:05:12;10.20;99.90
14962;DHT22;56489;53.166;10.864;2022-07-24T01:07:38;10.20;99.90
14962;DHT22;56489;53.166;10.864;2022-07-24T01:10:06;10.20;99.90
14962;DHT22;56489;53.166;10.864;2022-07-24T01:12:35;10.20;99.90
14962;DHT22;56489;53.166;10.864;2022-07-24T01:15:04;10.10;99.90
14962;DHT22;56489;53.166;10.864;2022-07-24T01:17:32;10.10;99.90
14962;DHT22;56489;53.166;10.864;2022-07-24T01:19:59;10.00;99.90
14962;DHT22;56489;53.166;10.864;2022-07-24T01:22:27;9.90;99.90
14962;DHT22;56489;53.166;10.864;2022-07-24T01:24:55;9.80;99.90
14962;DHT22;56489;53.166;10.864;2022-07-24T01:27:23;9.80;99.90
14962;DHT22;56489;53.166;10.864;2022-07-24T01:29:50;9.80;99.90
14962;DHT22;56489;53.166;10.864;2022-07-24T01:32:17;9.80;99.90
14962;DHT22;56489;53.166;10.864;2022-07-24T01:34:44;9.80;99.90
14962;DHT22;56489;53.166;10.864;2022-07-24T01:37:11;9.80;99.90
14962;DHT22;56489;53.166;10.864;2022-07-24T01:39:38;9.70;99.90
14962;DHT22;56489;53.166;10.864;2022-07-24T01:42:05;9.70;99.90
14962;DHT22;56489;53.166;10.864;2022-07-24T01:44:31;9.70;99.90
14962;DHT22;56489;53.166;10.864;2022-07-24T01:46:58;9.60;99.90
14962;DHT22;56489;53.166;10.864;2022-07-24T01:49:25;9.60;99.90
14962;DHT22;56489;53.166;10.864;2022-07-24T01:51:51;9.60;99.90
14962;DHT22;56489;53.166;10.864;2022-07-24T01:54:18;9.60;99.90
14962;DHT22;56489;53.166;10.864;2022-07-24T01:56:44;9.70;99.90
14962;DHT22;56489;53.166;10.864;2022-07-24T01:59:11;9.70;99.90
14962;DHT22;56489;53.166;10.864;2022-07-24T02:01:38;9.60;99.90
14962;DHT22;56489;53.166;10.864;2022-07-24T02:04:05;9.60;99.90
14962;DHT22;56489;53.166;10.864;2022-07-24T02:06:32;9.60;99.90
14962;DHT22;56489;53.166;10.864;2022-07-24T02:08:59;9.50;99.90
14962;DHT22;56489;53.166;10.864;2022-07-24T02:11:26;9.50;99.90
14962;DHT22;56489;53.166;10.864;2022-07-24T02:13:52;9.50;99.90
14962;DHT22;56489;53.166;10.864;2022-07-24T02:16:21;9.40;99.90
14962;DHT22;56489;53.166;10.864;2022-07-24T02:18:48;9.40;99.90
14962;DHT22;56489;53.166;10.864;2022-07-24T02:21:15;9.30;99.90
14962;DHT22;56489;53.166;10.864;2022-07-24T02:23:41;9.30;99.90
14962;DHT22;56489;53.166;10.864;2022-07-24T02:26:08;9.30;99.90
14962;DHT22;56489;53.166;10.864;2022-07-24T02:28:34;9.30;99.90
14962;DHT22;56489;53.166;10.864;2022-07-24T02:31:01;9.30;99.90
14962;DHT22;56489;53.166;10.864;2022-07-24T02:33:28;9.30;99.90
14962;DHT22;56489;53.166;10.864;2022-07-24T02:35:54;9.30;99.90
14962;DHT22;56489;53.166;10.864;2022-07-24T02:38:21;9.30;99.90
14962;DHT22;56489;53.166;10.864;2022-07-24T02:40:47;9.20;99.90
14962;DHT22;56489;53.166;10.864;2022-07-24T02:43:14;9.20;99.90
14962;DHT22;56489;53.166;10.864;2022-07-24T02:45:41;9.20;99.90
14962;DHT22;56489;53.166;10.864;2022-07-24T02:48:07;9.20;99.90
14962;DHT22;56489;53.166;10.864;2022-07-24T02:50:34;9.10;99.90
14962;DHT22;56489;53.166;10.864;2022-07-24T02:53:01;9.10;99.90
14962;DHT22;56489;53.166;10.864;2022-07-24T02:55:28;9.10;99.90
14962;DHT22;56489;53.166;10.864;2022-07-24T02:57:55;9.00;99.90
14962;DHT22;56489;53.166;10.864;2022-07-24T03:00:23;9.00;99.90
14962;DHT22;56489;53.166;10.864;2022-07-24T03:02:50;9.00;99.90
14962;DHT22;56489;53.166;10.864;2022-07-24T03:05:16;9.00;99.90
14962;DHT22;56489;53.166;10.864;2022-07-24T03:07:43;9.00;99.90
14962;DHT22;56489;53.166;10.864;2022-07-24T03:10:11;9.00;99.90
14962;DHT22;56489;53.166;10.864;2022-07-24T03:12:38;9.10;99.90
14962;DHT22;56489;53.166;10.864;2022-07-24T03:15:05;9.10;99.90
14962;DHT22;56489;53.166;10.864;2022-07-24T03:17:32;9.10;99.90
14962;DHT22;56489;53.166;10.864;2022-07-24T03:19:58;9.10;99.90
14962;DHT22;56489;53.166;10.864;2022-07-24T03:22:25;9.10;99.90
14962;DHT22;56489;53.166;10.864;2022-07-24T03:24:52;9.10;99.90
14962;DHT22;56489;53.166;10.864;2022-07-24T03:27:18;9.00;99.90
14962;DHT22;56489;53.166;10.864;2022-07-24T03:29:46;9.00;99.90
14962;DHT22;56489;53.166;10.864;2022-07-24T03:32:12;9.00;99.90
14962;DHT22;56489;53.166;10.864;2022-07-24T03:34:39;9.00;99.90
14962;DHT22;56489;53.166;10.864;2022-07-24T03:37:06;9.00;99.90
14962;DHT22;56489;53.166;10.864;2022-07-24T03:39:32;9.00;99.90
14962;DHT22;56489;53.166;10.864;2022-07-24T03:41:59;9.00;99.90
14962;DHT22;56489;53.166;10.864;2022-07-24T03:44:25;9.10;99.90
14962;DHT22;56489;53.166;10.864;2022-07-24T03:46:52;9.10;99.90
14962;DHT22;56489;53.166;10.864;2022-07-24T03:49:18;9.10;99.90
14962;DHT22;56489;53.166;10.864;2022-07-24T03:51:45;9.10;99.90
14962;DHT22;56489;53.166;10.864;2022-07-24T03:54:13;9.10;99.90
14962;DHT22;56489;53.166;10.864;2022-07-24T03:56:40;9.10;99.90
14962;DHT22;56489;53.166;10.864;2022-07-24T03:59:06;9.20;99.90
14962;DHT22;56489;53.166;10.864;2022-07-24T04:01:33;9.20;99.90
14962;DHT22;56489;53.166;10.864;2022-07-24T04:04:00;9.30;99.90
14962;DHT22;56489;53.166;10.864;2022-07-24T04:06:32;9.30;99.90
14962;DHT22;56489;53.166;10.864;2022-07-24T04:08:59;9.40;99.90
14962;DHT22;56489;53.166;10.864;2022-07-24T04:11:26;9.40;99.90
14962;DHT22;56489;53.166;10.864;2022-07-24T04:13:53;9.40;99.90
14962;DHT22;56489;53.166;10.864;2022-07-24T04:16:20;9.50;99.90
14962;DHT22;56489;53.166;10.864;2022-07-24T04:18:47;9.60;99.90
14962;DHT22;56489;53.166;10.864;2022-07-24T04:21:14;9.60;99.90
14962;DHT22;56489;53.166;10.864;2022-07-24T04:23:41;9.60;99.90
14962;DHT22;56489;53.166;10.864;2022-07-24T04:26:07;9.70;99.90
14962;DHT22;56489;53.166;10.864;2022-07-24T04:28:34;9.70;99.90
14962;DHT22;56489;53.166;10.864;2022-07-24T04:31:01;9.80;99.90
14962;DHT22;56489;53.166;10.864;2022-07-24T04:33:28;9.80;99.90
14962;DHT22;56489;53.166;10.864;2022-07-24T04:35:55;9.90;99.90
14962;DHT22;56489;53.166;10.864;2022-07-24T04:38:21;10.10;99.90
14962;DHT22;56489;53.166;10.864;2022-07-24T04:40:48;10.20;99.90
14962;DHT22;56489;53.166;10.864;2022-07-24T04:43:14;10.40;99.90
14962;DHT22;56489;53.166;10.864;2022-07-24T04:45:41;10.60;99.90
14962;DHT22;56489;53.166;10.864;2022-07-24T04:48:08;10.80;99.90
14962;DHT22;56489;53.166;10.864;2022-07-24T04:50:34;11.10;99.90
14962;DHT22;56489;53.166;10.864;2022-07-24T04:53:01;11.40;99.90
14962;DHT22;56489;53.166;10.864;2022-07-24T04:55:27;11.60;99.90
14962;DHT22;56489;53.166;10.864;2022-07-24T04:57:54;11.90;99.90
14962;DHT22;56489;53.166;10.864;2022-07-24T05:00:21;12.10;99.90
14962;DHT22;56489;53.166;10.864;2022-07-24T05:02:47;12.30;99.90
14962;DHT22;56489;53.166;10.864;2022-07-24T05:05:14;12.50;99.90
14962;DHT22;56489;53.166;10.864;2022-07-24T05:07:41;12.60;99.90
14962;DHT22;56489;53.166;10.864;2022-07-24T05:10:08;12.80;99.90
14962;DHT22;56489;53.166;10.864;2022-07-24T05:12:34;13.00;99.90
14962;DHT22;56489;53.166;10.864;2022-07-24T05:15:02;13.10;99.90
14962;DHT22;56489;53.166;10.864;2022-07-24T05:17:29;13.30;99.90
14962;DHT22;56489;53.166;10.864;2022-07-24T05:19:56;13.40;99.90
14962;DHT22;56489;53.166;10.864;2022-07-24T05:22:22;13.60;99.90
14962;DHT22;56489;53.166;10.864;2022-07-24T05:24:49;13.80;99.90
14962;DHT22;56489;53.166;10.864;2022-07-24T05:27:15;13.90;99.90
14962;DHT22;56489;53.166;10.864;2022-07-24T05:29:43;14.10;99.90
14962;DHT22;56489;53.166;10.864;2022-07-24T05:32:09;14.30;99.90
14962;DHT22;56489;53.166;10.864;2022-07-24T05:34:36;14.50;99.90
14962;DHT22;56489;53.166;10.864;2022-07-24T05:37:07;14.60;99.90
14962;DHT22;56489;53.166;10.864;2022-07-24T05:39:34;14.80;99.90
14962;DHT22;56489;53.166;10.864;2022-07-24T05:42:01;15.00;99.90
14962;DHT22;56489;53.166;10.864;2022-07-24T05:44:28;15.20;99.90
14962;DHT22;56489;53.166;10.864;2022-07-24T05:46:54;15.40;99.90
14962;DHT22;56489;53.166;10.864;2022-07-24T05:49:21;15.70;99.90
14962;DHT22;56489;53.166;10.864;2022-07-24T05:51:48;15.90;99.90
14962;DHT22;56489;53.166;10.864;2022-07-24T05:54:14;16.10;99.90
14962;DHT22;56489;53.166;10.864;2022-07-24T05:56:41;16.30;99.90
14962;DHT22;56489;53.166;10.864;2022-07-24T05:59:08;16.50;99.90
14962;DHT22;56489;53.166;10.864;2022-07-24T06:01:35;16.70;99.90
14962;DHT22;56489;53.166;10.864;2022-07-24T06:04:02;16.90;99.90
14962;DHT22;56489;53.166;10.864;2022-07-24T06:06:28;17.10;99.90
14962;DHT22;56489;53.166;10.864;2022-07-24T06:08:55;17.30;99.90
14962;DHT22;56489;53.166;10.864;2022-07-24T06:11:21;17.50;99.90
14962;DHT22;56489;53.166;10.864;2022-07-24T06:13:50;17.70;99.90
14962;DHT22;56489;53.166;10.864;2022-07-24T06:16:16;17.90;99.90
14962;DHT22;56489;53.166;10.864;2022-07-24T06:18:43;18.10;99.90
14962;DHT22;56489;53.166;10.864;2022-07-24T06:21:10;18.30;99.90
14962;DHT22;56489;53.166;10.864;2022-07-24T06:23:37;18.60;99.90
14962;DHT22;56489;53.166;10.864;2022-07-24T06:26:03;19.00;99.90
14962;DHT22;56489;53.166;10.864;2022-07-24T06:28:30;19.60;99.90
14962;DHT22;56489;53.166;10.864;2022-07-24T06:30:57;20.40;99.90
14962;DHT22;56489;53.166;10.864;2022-07-24T06:33:25;21.20;99.90
14962;DHT22;56489;53.166;10.864;2022-07-24T06:35:51;22.00;99.90
14962;DHT22;56489;53.166;10.864;2022-07-24T06:38:18;22.60;99.90
14962;DHT22;56489;53.166;10.864;2022-07-24T06:40:44;23.10;99.90
14962;DHT22;56489;53.166;10.864;2022-07-24T06:43:11;23.60;99.90
14962;DHT22;56489;53.166;10.864;2022-07-24T06:45:38;24.60;99.90
14962;DHT22;56489;53.166;10.864;2022-07-24T06:48:05;26.10;99.90
14962;DHT22;56489;53.166;10.864;2022-07-24T06:50:32;27.20;99.90
14962;DHT22;56489;53.166;10.864;2022-07-24T06:52:58;28.40;99.90
14962;DHT22;56489;53.166;10.864;2022-07-24T06:55:25;29.50;99.90
14962;DHT22;56489;53.166;10.864;2022-07-24T06:57:51;30.50;99.90
14962;DHT22;56489;53.166;10.864;2022-07-24T07:00:18;31.40;99.90
14962;DHT22;56489;53.166;10.864;2022-07-24T07:02:45;32.10;98.30
14962;DHT22;56489;53.166;10.864;2022-07-24T07:05:12;32.70;96.90
14962;DHT22;56489;53.166;10.864;2022-07-24T07:07:39;33.20;95.40
14962;DHT22;56489;53.166;10.864;2022-07-24T07:10:06;33.50;93.80
14962;DHT22;56489;53.166;10.864;2022-07-24T07:12:33;33.80;93.10
14962;DHT22;56489;53.166;10.864;2022-07-24T07:15:06;34.10;92.10
14962;DHT22;56489;53.166;10.864;2022-07-24T07:17:33;34.60;90.90
14962;DHT22;56489;53.166;10.864;2022-07-24T07:20:00;35.20;89.40
14962;DHT22;56489;53.166;10.864;2022-07-24T07:22:26;35.30;87.60
14962;DHT22;56489;53.166;10.864;2022-07-24T07:24:53;35.50;86.70
14962;DHT22;56489;53.166;10.864;2022-07-24T07:27:20;35.60;85.50
14962;DHT22;56489;53.166;10.864;2022-07-24T07:29:46;35.90;84.90
14962;DHT22;56489;53.166;10.864;2022-07-24T07:32:13;36.50;83.80
14962;DHT22;56489;53.166;10.864;2022-07-24T07:34:39;36.90;81.10
14962;DHT22;56489;53.166;10.864;2022-07-24T07:37:06;37.10;80.60
14962;DHT22;56489;53.166;10.864;2022-07-24T07:39:34;37.20;78.90
14962;DHT22;56489;53.166;10.864;2022-07-24T07:42:00;37.10;79.10
14962;DHT22;56489;53.166;10.864;2022-07-24T07:44:27;37.10;79.20
14962;DHT22;56489;53.166;10.864;2022-07-24T07:46:54;37.00;77.00
14962;DHT22;56489;53.166;10.864;2022-07-24T07:49:25;36.80;77.10
14962;DHT22;56489;53.166;10.864;2022-07-24T07:51:52;36.80;77.10
14962;DHT22;56489;53.166;10.864;2022-07-24T07:54:19;36.80;77.80
14962;DHT22;56489;53.166;10.864;2022-07-24T07:56:46;36.60;76.30
14962;DHT22;56489;53.166;10.864;2022-07-24T07:59:12;36.40;76.90
14962;DHT22;56489;53.166;10.864;2022-07-24T08:01:39;36.30;76.50
14962;DHT22;56489;53.166;10.864;2022-07-24T08:04:06;36.10;76.70
14962;DHT22;56489;53.166;10.864;2022-07-24T08:06:32;36.10;76.30
14962;DHT22;56489;53.166;10.864;2022-07-24T08:08:59;36.10;75.90
14962;DHT22;56489;53.166;10.864;2022-07-24T08:11:26;36.20;76.30
14962;DHT22;56489;53.166;10.864;2022-07-24T08:13:54;36.20;75.10
14962;DHT22;56489;53.166;10.864;2022-07-24T08:16:20;36.00;75.20
14962;DHT22;56489;53.166;10.864;2022-07-24T08:18:47;35.20;75.70
14962;DHT22;56489;53.166;10.864;2022-07-24T08:21:18;34.00;76.80
14962;DHT22;56489;53.166;10.864;2022-07-24T08:23:45;32.60;78.80
14962;DHT22;56489;53.166;10.864;2022-07-24T08:26:12;31.40;80.70
14962;DHT22;56489;53.166;10.864;2022-07-24T08:28:39;30.30;81.80
14962;DHT22;56489;53.166;10.864;2022-07-24T08:31:06;29.40;83.10
14962;DHT22;56489;53.166;10.864;2022-07-24T08:33:32;28.60;85.00
14962;DHT22;56489;53.166;10.864;2022-07-24T08:35:59;27.80;86.90
14962;DHT22;56489;53.166;10.864;2022-07-24T08:38:26;27.20;89.40
14962;DHT22;56489;53.166;10.864;2022-07-24T08:40:53;26.70;90.10
14962;DHT22;56489;53.166;10.864;2022-07-24T08:43:19;26.30;90.60
14962;DHT22;56489;53.166;10.864;2022-07-24T08:45:46;26.00;91.70
14962;DHT22;56489;53.166;10.864;2022-07-24T08:48:13;25.80;92.10
14962;DHT22;56489;53.166;10.864;2022-07-24T08:50:41;25.60;92.90
14962;DHT22;56489;53.166;10.864;2022-07-24T08:53:08;25.40;92.60
14962;DHT22;56489;53.166;10.864;2022-07-24T08:55:35;25.30;92.80
14962;DHT22;56489;53.166;10.864;2022-07-24T08:58:02;25.20;92.70
14962;DHT22;56489;53.166;10.864;2022-07-24T09:00:31;25.10;92.70
14962;DHT22;56489;53.166;10.864;2022-07-24T09:02:58;25.00;92.50
14962;DHT22;56489;53.166;10.864;2022-07-24T09:05:24;25.00;93.50
14962;DHT22;56489;53.166;10.864;2022-07-24T09:08:06;24.90;93.40
14962;DHT22;56489;53.166;10.864;2022-07-24T09:10:33;24.80;93.80
14962;DHT22;56489;53.166;10.864;2022-07-24T09:13:14;24.80;93.70
14962;DHT22;56489;53.166;10.864;2022-07-24T09:15:46;24.80;93.40
14962;DHT22;56489;53.166;10.864;2022-07-24T09:18:32;24.80;94.00
14962;DHT22;56489;53.166;10.864;2022-07-24T09:21:11;24.70;94.10
14962;DHT22;56489;53.166;10.864;2022-07-24T09:23:40;24.70;94.30
14962;DHT22;56489;53.166;10.864;2022-07-24T09:26:06;24.80;94.60
14962;DHT22;56489;53.166;10.864;2022-07-24T09:28:53;24.80;95.10
14962;DHT22;56489;53.166;10.864;2022-07-24T09:31:20;24.80;94.10
14962;DHT22;56489;53.166;10.864;2022-07-24T09:33:49;24.80;94.10
14962;DHT22;56489;53.166;10.864;2022-07-24T09:36:18;24.90;94.20
14962;DHT22;56489;53.166;10.864;2022-07-24T09:38:51;24.90;94.20
14962;DHT22;56489;53.166;10.864;2022-07-24T09:41:22;24.90;94.40
14962;DHT22;56489;53.166;10.864;2022-07-24T09:43:57;25.00;94.50
14962;DHT22;56489;53.166;10.864;2022-07-24T09:46:25;25.00;94.30
14962;DHT22;56489;53.166;10.864;2022-07-24T09:48:56;25.00;95.10
14962;DHT22;56489;53.166;10.864;2022-07-24T09:51:25;25.10;95.80
14962;DHT22;56489;53.166;10.864;2022-07-24T09:53:55;25.10;95.50
14962;DHT22;56489;53.166;10.864;2022-07-24T09:56:23;25.20;95.30
14962;DHT22;56489;53.166;10.864;2022-07-24T09:58:52;25.20;95.60
14962;DHT22;56489;53.166;10.864;2022-07-24T10:01:25;25.20;95.20
14962;DHT22;56489;53.166;10.864;2022-07-24T10:03:53;25.20;96.50
14962;DHT22;56489;53.166;10.864;2022-07-24T10:06:22;25.20;95.60
14962;DHT22;56489;53.166;10.864;2022-07-24T10:08:50;25.30;95.90
14962;DHT22;56489;53.166;10.864;2022-07-24T10:11:19;25.30;95.80
14962;DHT22;56489;53.166;10.864;2022-07-24T10:13:46;25.30;95.80
14962;DHT22;56489;53.166;10.864;2022-07-24T10:18:58;25.40;95.90
14962;DHT22;56489;53.166;10.864;2022-07-24T10:21:33;25.40;95.50
14962;DHT22;56489;53.166;10.864;2022-07-24T10:26:44;25.50;95.60
14962;DHT22;56489;53.166;10.864;2022-07-24T10:29:16;25.40;95.60
14962;DHT22;56489;53.166;10.864;2022-07-24T10:31:46;25.50;95.90
14962;DHT22;56489;53.166;10.864;2022-07-24T10:43:07;25.50;95.80
14962;DHT22;56489;53.166;10.864;2022-07-24T10:45:35;25.60;95.80
14962;DHT22;56489;53.166;10.864;2022-07-24T11:01:43;25.70;95.70
14962;DHT22;56489;53.166;10.864;2022-07-24T11:06:54;25.70;95.40
14962;DHT22;56489;53.166;10.864;2022-07-24T11:09:23;25.80;95.10
14962;DHT22;56489;53.166;10.864;2022-07-24T11:14:24;25.70;94.90
14962;DHT22;56489;53.166;10.864;2022-07-24T11:16:52;25.80;95.10
14962;DHT22;56489;53.166;10.864;2022-07-24T11:21:46;25.80;94.50
14962;DHT22;56489;53.166;10.864;2022-07-24T11:26:57;26.00;94.80
14962;DHT22;56489;53.166;10.864;2022-07-24T11:29:26;26.00;94.60
14962;DHT22;56489;53.166;10.864;2022-07-24T11:34:26;26.20;94.70
14962;DHT22;56489;53.166;10.864;2022-07-24T11:36:53;26.30;94.50
14962;DHT22;56489;53.166;10.864;2022-07-24T11:39:28;26.30;94.20
14962;DHT22;56489;53.166;10.864;2022-07-24T11:42:01;26.30;93.30
14962;DHT22;56489;53.166;10.864;2022-07-24T11:44:34;26.30;93.70
14962;DHT22;56489;53.166;10.864;2022-07-24T11:47:10;26.40;93.70
14962;DHT22;56489;53.166;10.864;2022-07-24T11:49:48;26.30;93.10
14962;DHT22;56489;53.166;10.864;2022-07-24T11:52:17;26.30;93.70
14962;DHT22;56489;53.166;10.864;2022-07-24T11:54:46;26.30;92.90
14962;DHT22;56489;53.166;10.864;2022-07-24T11:57:22;26.30;93.40
14962;DHT22;56489;53.166;10.864;2022-07-24T12:00:13;26.30;93.90
14962;DHT22;56489;53.166;10.864;2022-07-24T12:02:51;26.30;94.10
14962;DHT22;56489;53.166;10.864;2022-07-24T12:05:30;26.40;94.10
14962;DHT22;56489;53.166;10.864;2022-07-24T12:07:59;26.50;93.50
14962;DHT22;56489;53.166;10.864;2022-07-24T12:10:27;26.50;93.70
14962;DHT22;56489;53.166;10.864;2022-07-24T12:12:55;26.60;93.20
14962;DHT22;56489;53.166;10.864;2022-07-24T12:15:24;26.60;92.70
14962;DHT22;56489;53.166;10.864;2022-07-24T12:17:55;26.60;92.30
14962;DHT22;56489;53.166;10.864;2022-07-24T12:20:40;26.60;92.10
14962;DHT22;56489;53.166;10.864;2022-07-24T12:23:12;26.50;92.20
14962;DHT22;56489;53.166;10.864;2022-07-24T12:25:39;26.50;91.90
14962;DHT22;56489;53.166;10.864;2022-07-24T12:28:08;26.50;92.00
14962;DHT22;56489;53.166;10.864;2022-07-24T12:30:46;26.60;92.30
14962;DHT22;56489;53.166;10.864;2022-07-24T12:36:02;26.80;91.50
14962;DHT22;56489;53.166;10.864;2022-07-24T12:41:18;27.00;91.70
14962;DHT22;56489;53.166;10.864;2022-07-24T12:43:56;27.10;91.40
14962;DHT22;56489;53.166;10.864;2022-07-24T12:46:35;27.10;90.80
14962;DHT22;56489;53.166;10.864;2022-07-24T12:49:03;27.10;91.10
14962;DHT22;56489;53.166;10.864;2022-07-24T12:54:30;27.10;90.70
14962;DHT22;56489;53.166;10.864;2022-07-24T12:57:01;27.10;90.50
14962;DHT22;56489;53.166;10.864;2022-07-24T12:59:30;27.20;91.50
14962;DHT22;56489;53.166;10.864;2022-07-24T13:02:01;27.30;92.40
14962;DHT22;56489;53.166;10.864;2022-07-24T13:04:29;27.40;91.90
14962;DHT22;56489;53.166;10.864;2022-07-24T13:06:57;27.60;92.00
14962;DHT22;56489;53.166;10.864;2022-07-24T13:09:25;27.60;91.70
14962;DHT22;56489;53.166;10.864;2022-07-24T13:11:53;27.70;91.60
14962;DHT22;56489;53.166;10.864;2022-07-24T13:14:22;27.80;90.40
14962;DHT22;56489;53.166;10.864;2022-07-24T13:16:51;27.80;90.30
14962;DHT22;56489;53.166;10.864;2022-07-24T13:19:19;27.70;90.60
14962;DHT22;56489;53.166;10.864;2022-07-24T13:21:47;27.70;90.90
14962;DHT22;56489;53.166;10.864;2022-07-24T13:24:16;27.80;91.00
14962;DHT22;56489;53.166;10.864;2022-07-24T13:26:48;27.80;90.90
14962;DHT22;56489;53.166;10.864;2022-07-24T13:29:15;27.80;90.70
14962;DHT22;56489;53.166;10.864;2022-07-24T13:31:42;27.80;89.60
14962;DHT22;56489;53.166;10.864;2022-07-24T13:34:10;27.80;90.10
14962;DHT22;56489;53.166;10.864;2022-07-24T13:36:40;27.80;90.90
14962;DHT22;56489;53.166;10.864;2022-07-24T13:39:12;27.80;90.80
14962;DHT22;56489;53.166;10.864;2022-07-24T13:41:39;27.80;90.50
14962;DHT22;56489;53.166;10.864;2022-07-24T13:44:05;27.90;90.60
14962;DHT22;56489;53.166;10.864;2022-07-24T13:46:35;27.90;90.70
14962;DHT22;56489;53.166;10.864;2022-07-24T13:49:04;27.80;90.20
14962;DHT22;56489;53.166;10.864;2022-07-24T13:51:31;27.80;90.40
14962;DHT22;56489;53.166;10.864;2022-07-24T13:53:57;27.80;90.70
14962;DHT22;56489;53.166;10.864;2022-07-24T13:56:26;27.90;90.30
14962;DHT22;56489;53.166;10.864;2022-07-24T13:58:53;28.00;90.50
14962;DHT22;56489;53.166;10.864;2022-07-24T14:01:20;28.00;89.30
14962;DHT22;56489;53.166;10.864;2022-07-24T14:04:03;28.00;88.70
14962;DHT22;56489;53.166;10.864;2022-07-24T14:06:51;28.00;89.60
14962;DHT22;56489;53.166;10.864;2022-07-24T14:09:18;28.00;90.20
14962;DHT22;56489;53.166;10.864;2022-07-24T14:11:45;28.00;89.80
14962;DHT22;56489;53.166;10.864;2022-07-24T14:14:11;28.10;90.40
14962;DHT22;56489;53.166;10.864;2022-07-24T14:16:38;28.10;90.50
14962;DHT22;56489;53.166;10.864;2022-07-24T14:19:05;28.20;90.00
14962;DHT22;56489;53.166;10.864;2022-07-24T14:21:31;28.20;90.00
14962;DHT22;56489;53.166;10.864;2022-07-24T14:24:00;28.20;90.20
14962;DHT22;56489;53.166;10.864;2022-07-24T14:26:27;28.20;89.80
14962;DHT22;56489;53.166;10.864;2022-07-24T14:28:54;28.20;90.10
14962;DHT22;56489;53.166;10.864;2022-07-24T14:31:20;28.30;89.70
14962;DHT22;56489;53.166;10.864;2022-07-24T14:33:47;28.40;90.20
14962;DHT22;56489;53.166;10.864;2022-07-24T14:36:13;28.50;89.60
14962;DHT22;56489;53.166;10.864;2022-07-24T14:38:40;28.60;89.20
14962;DHT22;56489;53.166;10.864;2022-07-24T14:41:06;28.60;89.30
14962;DHT22;56489;53.166;10.864;2022-07-24T14:43:33;28.70;89.00
14962;DHT22;56489;53.166;10.864;2022-07-24T14:46:00;28.70;87.60
14962;DHT22;56489;53.166;10.864;2022-07-24T14:48:26;28.60;86.10
14962;DHT22;56489;53.166;10.864;2022-07-24T14:50:53;28.60;86.80
14962;DHT22;56489;53.166;10.864;2022-07-24T14:53:19;28.70;89.00
14962;DHT22;56489;53.166;10.864;2022-07-24T14:55:46;28.80;88.30
14962;DHT22;56489;53.166;10.864;2022-07-24T14:58:13;28.80;85.50
14962;DHT22;56489;53.166;10.864;2022-07-24T15:00:39;28.80;87.30
14962;DHT22;56489;53.166;10.864;2022-07-24T15:03:06;28.80;87.20
14962;DHT22;56489;53.166;10.864;2022-07-24T15:05:32;28.90;87.40
14962;DHT22;56489;53.166;10.864;2022-07-24T15:07:59;28.90;88.00
14962;DHT22;56489;53.166;10.864;2022-07-24T15:10:26;28.90;87.70
14962;DHT22;56489;53.166;10.864;2022-07-24T15:12:52;28.90;86.10
14962;DHT22;56489;53.166;10.864;2022-07-24T15:15:19;28.70;86.70
14962;DHT22;56489;53.166;10.864;2022-07-24T15:17:47;28.60;87.20
14962;DHT22;56489;53.166;10.864;2022-07-24T15:20:15;28.50;86.80
14962;DHT22;56489;53.166;10.864;2022-07-24T15:22:42;28.50;87.80
14962;DHT22;56489;53.166;10.864;2022-07-24T15:25:09;28.40;87.90
14962;DHT22;56489;53.166;10.864;2022-07-24T15:27:35;28.30;87.20
14962;DHT22;56489;53.166;10.864;2022-07-24T15:30:03;28.20;87.50
14962;DHT22;56489;53.166;10.864;2022-07-24T15:32:40;28.20;86.60
14962;DHT22;56489;53.166;10.864;2022-07-24T15:35:07;28.10;87.00
14962;DHT22;56489;53.166;10.864;2022-07-24T15:37:34;28.10;88.00
14962;DHT22;56489;53.166;10.864;2022-07-24T15:40:02;28.10;88.30
14962;DHT22;56489;53.166;10.864;2022-07-24T15:42:29;28.00;88.10
14962;DHT22;56489;53.166;10.864;2022-07-24T15:44:55;28.00;88.40
14962;DHT22;56489;53.166;10.864;2022-07-24T15:47:22;28.00;88.80
14962;DHT22;56489;53.166;10.864;2022-07-24T15:49:48;28.00;87.90
14962;DHT22;56489;53.166;10.864;2022-07-24T15:52:15;28.00;88.20
14962;DHT22;56489;53.166;10.864;2022-07-24T15:54:41;28.00;87.90
14962;DHT22;56489;53.166;10.864;2022-07-24T15:57:08;28.00;88.10
14962;DHT22;56489;53.166;10.864;2022-07-24T15:59:35;27.90;88.80
14962;DHT22;56489;53.166;10.864;2022-07-24T16:02:01;27.90;88.40
14962;DHT22;56489;53.166;10.864;2022-07-24T16:04:28;27.90;88.30
14962;DHT22;56489;53.166;10.864;2022-07-24T16:06:54;27.90;88.80
14962;DHT22;56489;53.166;10.864;2022-07-24T16:09:21;27.90;89.30
14962;DHT22;56489;53.166;10.864;2022-07-24T16:11:48;27.90;88.20
14962;DHT22;56489;53.166;10.864;2022-07-24T16:14:19;27.90;88.60